This is the latest recevied weather packets stored in our database for station/object OE-11361. If no packets are shown the sender has not sent any weather packets the latest 10 day(s).
| Time | Temp. | Humidity | Pressure | Rain* | Wind** | Luminosity | Snow |
|---|---|---|---|---|---|---|---|
| 1787847077 | 26.67° C | 70% | 1011.6 hPa | 0 mm | - | 96 W/m² | - |
| 1787846704 | 26.67° C | 67% | 1011.6 hPa | 0 mm | - | 96 W/m² | - |
| 1787846104 | 27.22° C | 62% | 1011.5 hPa | 0 mm | - | 138 W/m² | - |
| 1787845276 | 27.78° C | 59% | 1011.3 hPa | 0 mm | - | 214 W/m² | - |
| 1787844904 | 27.78° C | 59% | 1011.2 hPa | 0 mm | - | 234 W/m² | - |
| 1787844304 | 28.33° C | 57% | 1011.1 hPa | 0 mm | - | 345 W/m² | - |
| 1787843477 | 28.33° C | 55% | 1011.3 hPa | 0 mm | - | 365 W/m² | - |
| 1787843104 | 28.33° C | 56% | 1011.5 hPa | 0 mm | - | 386 W/m² | - |
| 1787842504 | 28.33° C | 56% | 1011.5 hPa | 0 mm | - | 393 W/m² | - |
| 1787841677 | 28.33° C | 56% | 1011.3 hPa | 0 mm | - | 469 W/m² | - |
| 1787841304 | 28.33° C | 55% | 1011.2 hPa | 0 mm | - | 489 W/m² | - |
| 1787839877 | 28.89° C | 55% | 1011 hPa | 0 mm | - | 551 W/m² | - |
| 1787839504 | 28.89° C | 55% | 1011.2 hPa | 0 mm | - | 565 W/m² | - |
| 1787838904 | 28.89° C | 54% | 1011.2 hPa | 0 mm | - | 558 W/m² | - |
| 1787838077 | 29.44° C | 52% | 1011.2 hPa | 0 mm | - | 593 W/m² | - |
| 1787837704 | 29.44° C | 52% | 1011.2 hPa | 0 mm | - | 620 W/m² | - |
| 1787837104 | 29.44° C | 55% | 1011.2 hPa | 0 mm | - | 606 W/m² | - |
| 1787836277 | 29.44° C | 52% | 1011.2 hPa | 0 mm | - | 648 W/m² | - |
| 1787835903 | 28.89° C | 52% | 1011.3 hPa | 0 mm | - | 675 W/m² | - |
| 1787835304 | 28.89° C | 54% | 1011.5 hPa | 0 mm | - | 675 W/m² | - |
| 1787834477 | 28.33° C | 54% | 1011.6 hPa | 0 mm | - | 669 W/m² | - |
| 1787834103 | 28.33° C | 56% | 1011.7 hPa | 0 mm | - | 662 W/m² | - |
| 1787833504 | 28.89° C | 52% | 1011.7 hPa | 0 mm | - | 675 W/m² | - |
| 1787832677 | 28.33° C | 53% | 1012 hPa | 0 mm | - | 600 W/m² | - |
| 1787832304 | 29.44° C | 53% | 1011.8 hPa | 0 mm | - | 696 W/m² | - |
* Rain latest hour (hover to see other rain measurements)
** Current wind speed in m/s (hover to see current wind gust speed)